sensor_id;sensor_type;location;lat;lon;timestamp;temperature;humidity
34434;DHT22;34290;48.562;13.384;2022-12-07T00:00:55;2.10;99.90
34434;DHT22;34290;48.562;13.384;2022-12-07T00:03:33;2.10;99.90
34434;DHT22;34290;48.562;13.384;2022-12-07T00:08:27;2.10;99.90
34434;DHT22;34290;48.562;13.384;2022-12-07T00:10:54;2.20;99.90
34434;DHT22;34290;48.562;13.384;2022-12-07T00:15:49;2.30;99.90
34434;DHT22;34290;48.562;13.384;2022-12-07T00:18:16;2.30;99.90
34434;DHT22;34290;48.562;13.384;2022-12-07T00:20:43;2.30;99.90
34434;DHT22;34290;48.562;13.384;2022-12-07T00:23:10;2.20;99.90
34434;DHT22;34290;48.562;13.384;2022-12-07T00:25:37;2.30;99.90
34434;DHT22;34290;48.562;13.384;2022-12-07T00:28:04;2.20;99.90
34434;DHT22;34290;48.562;13.384;2022-12-07T00:30:32;2.20;99.90
34434;DHT22;34290;48.562;13.384;2022-12-07T00:33:00;2.20;99.90
34434;DHT22;34290;48.562;13.384;2022-12-07T00:35:27;2.20;99.90
34434;DHT22;34290;48.562;13.384;2022-12-07T00:37:54;2.20;99.90
34434;DHT22;34290;48.562;13.384;2022-12-07T00:40:21;2.20;99.90
34434;DHT22;34290;48.562;13.384;2022-12-07T00:42:48;2.20;99.90
34434;DHT22;34290;48.562;13.384;2022-12-07T00:45:15;2.20;99.90
34434;DHT22;34290;48.562;13.384;2022-12-07T00:47:43;2.20;99.90
34434;DHT22;34290;48.562;13.384;2022-12-07T00:50:11;2.20;99.90
34434;DHT22;34290;48.562;13.384;2022-12-07T00:52:38;2.20;99.90
34434;DHT22;34290;48.562;13.384;2022-12-07T00:55:05;2.20;99.90
34434;DHT22;34290;48.562;13.384;2022-12-07T00:57:32;2.10;99.90
34434;DHT22;34290;48.562;13.384;2022-12-07T00:59:59;2.10;99.90
34434;DHT22;34290;48.562;13.384;2022-12-07T01:02:26;2.10;99.90
34434;DHT22;34290;48.562;13.384;2022-12-07T01:07:24;2.10;99.90
34434;DHT22;34290;48.562;13.384;2022-12-07T01:09:51;2.10;99.90
34434;DHT22;34290;48.562;13.384;2022-12-07T01:12:18;2.00;99.90
34434;DHT22;34290;48.562;13.384;2022-12-07T01:14:45;2.10;99.90
34434;DHT22;34290;48.562;13.384;2022-12-07T01:19:39;2.00;99.90
34434;DHT22;34290;48.562;13.384;2022-12-07T01:22:06;2.10;99.90
34434;DHT22;34290;48.562;13.384;2022-12-07T01:24:34;2.10;99.90
34434;DHT22;34290;48.562;13.384;2022-12-07T01:34:22;2.10;99.90
34434;DHT22;34290;48.562;13.384;2022-12-07T01:36:49;2.20;99.90
34434;DHT22;34290;48.562;13.384;2022-12-07T01:39:16;2.10;99.90
34434;DHT22;34290;48.562;13.384;2022-12-07T01:41:45;2.10;99.90
34434;DHT22;34290;48.562;13.384;2022-12-07T01:44:20;2.10;99.90
34434;DHT22;34290;48.562;13.384;2022-12-07T01:46:49;2.10;99.90
34434;DHT22;34290;48.562;13.384;2022-12-07T01:49:21;2.20;99.90
34434;DHT22;34290;48.562;13.384;2022-12-07T01:51:51;2.20;99.90
34434;DHT22;34290;48.562;13.384;2022-12-07T01:54:20;2.20;99.90
34434;DHT22;34290;48.562;13.384;2022-12-07T01:56:51;2.30;99.90
34434;DHT22;34290;48.562;13.384;2022-12-07T01:59:20;2.20;99.90
34434;DHT22;34290;48.562;13.384;2022-12-07T02:01:50;2.20;99.90
34434;DHT22;34290;48.562;13.384;2022-12-07T02:04:18;2.20;99.90
34434;DHT22;34290;48.562;13.384;2022-12-07T02:06:46;2.20;99.90
34434;DHT22;34290;48.562;13.384;2022-12-07T02:11:43;2.20;99.90
34434;DHT22;34290;48.562;13.384;2022-12-07T02:14:11;2.20;99.90
34434;DHT22;34290;48.562;13.384;2022-12-07T02:16:47;2.20;99.90
34434;DHT22;34290;48.562;13.384;2022-12-07T02:19:49;2.20;99.90
34434;DHT22;34290;48.562;13.384;2022-12-07T02:22:45;2.20;99.90
34434;DHT22;34290;48.562;13.384;2022-12-07T02:25:22;2.20;99.90
34434;DHT22;34290;48.562;13.384;2022-12-07T02:27:54;2.20;99.90
34434;DHT22;34290;48.562;13.384;2022-12-07T02:30:27;2.20;99.90
34434;DHT22;34290;48.562;13.384;2022-12-07T02:33:00;2.20;99.90
34434;DHT22;34290;48.562;13.384;2022-12-07T02:35:33;2.20;99.90
34434;DHT22;34290;48.562;13.384;2022-12-07T02:38:04;2.20;99.90
34434;DHT22;34290;48.562;13.384;2022-12-07T02:40:36;2.20;99.90
34434;DHT22;34290;48.562;13.384;2022-12-07T02:43:07;2.20;99.90
34434;DHT22;34290;48.562;13.384;2022-12-07T02:45:38;2.20;99.90
34434;DHT22;34290;48.562;13.384;2022-12-07T02:48:09;2.20;99.90
34434;DHT22;34290;48.562;13.384;2022-12-07T02:50:36;2.20;99.90
34434;DHT22;34290;48.562;13.384;2022-12-07T02:53:03;2.10;99.90
34434;DHT22;34290;48.562;13.384;2022-12-07T02:55:36;2.10;99.90
34434;DHT22;34290;48.562;13.384;2022-12-07T02:58:25;2.10;99.90
34434;DHT22;34290;48.562;13.384;2022-12-07T03:01:03;2.10;99.90
34434;DHT22;34290;48.562;13.384;2022-12-07T03:03:33;2.10;99.90
34434;DHT22;34290;48.562;13.384;2022-12-07T03:06:08;2.10;99.90
34434;DHT22;34290;48.562;13.384;2022-12-07T03:08:47;2.00;99.90
34434;DHT22;34290;48.562;13.384;2022-12-07T03:11:17;2.00;99.90
34434;DHT22;34290;48.562;13.384;2022-12-07T03:13:49;2.00;99.90
34434;DHT22;34290;48.562;13.384;2022-12-07T03:16:21;2.00;99.90
34434;DHT22;34290;48.562;13.384;2022-12-07T03:18:55;1.90;99.90
34434;DHT22;34290;48.562;13.384;2022-12-07T03:21:25;1.90;99.90
34434;DHT22;34290;48.562;13.384;2022-12-07T03:23:56;1.90;99.90
34434;DHT22;34290;48.562;13.384;2022-12-07T03:26:31;1.90;99.90
34434;DHT22;34290;48.562;13.384;2022-12-07T03:29:02;1.90;99.90
34434;DHT22;34290;48.562;13.384;2022-12-07T03:31:36;1.90;99.90
34434;DHT22;34290;48.562;13.384;2022-12-07T03:34:07;1.90;99.90
34434;DHT22;34290;48.562;13.384;2022-12-07T03:36:40;1.90;99.90
34434;DHT22;34290;48.562;13.384;2022-12-07T03:39:17;1.90;99.90
34434;DHT22;34290;48.562;13.384;2022-12-07T03:41:46;1.90;99.90
34434;DHT22;34290;48.562;13.384;2022-12-07T03:44:15;1.90;99.90
34434;DHT22;34290;48.562;13.384;2022-12-07T03:46:47;1.90;99.90
34434;DHT22;34290;48.562;13.384;2022-12-07T03:49:23;1.90;99.90
34434;DHT22;34290;48.562;13.384;2022-12-07T03:51:56;1.90;99.90
34434;DHT22;34290;48.562;13.384;2022-12-07T03:54:29;1.80;99.90
34434;DHT22;34290;48.562;13.384;2022-12-07T03:56:58;1.80;99.90
34434;DHT22;34290;48.562;13.384;2022-12-07T03:59:26;1.80;99.90
34434;DHT22;34290;48.562;13.384;2022-12-07T04:01:58;1.90;99.90
34434;DHT22;34290;48.562;13.384;2022-12-07T04:04:28;1.90;99.90
34434;DHT22;34290;48.562;13.384;2022-12-07T04:06:55;1.80;99.90
34434;DHT22;34290;48.562;13.384;2022-12-07T04:09:22;1.80;99.90
34434;DHT22;34290;48.562;13.384;2022-12-07T04:11:49;1.80;99.90
34434;DHT22;34290;48.562;13.384;2022-12-07T04:16:46;1.80;99.90
34434;DHT22;34290;48.562;13.384;2022-12-07T04:19:16;1.80;99.90
34434;DHT22;34290;48.562;13.384;2022-12-07T04:21:43;1.80;99.90
34434;DHT22;34290;48.562;13.384;2022-12-07T04:24:11;1.70;99.90
34434;DHT22;34290;48.562;13.384;2022-12-07T04:26:38;1.70;99.90
34434;DHT22;34290;48.562;13.384;2022-12-07T04:36:28;1.60;99.90
34434;DHT22;34290;48.562;13.384;2022-12-07T04:38:55;1.70;99.90
34434;DHT22;34290;48.562;13.384;2022-12-07T04:41:23;1.70;99.90
34434;DHT22;34290;48.562;13.384;2022-12-07T04:46:20;1.60;99.90
34434;DHT22;34290;48.562;13.384;2022-12-07T04:48:47;1.70;99.90
34434;DHT22;34290;48.562;13.384;2022-12-07T04:51:16;1.70;99.90
34434;DHT22;34290;48.562;13.384;2022-12-07T04:53:46;1.70;99.90
34434;DHT22;34290;48.562;13.384;2022-12-07T04:56:14;1.70;99.90
34434;DHT22;34290;48.562;13.384;2022-12-07T04:58:41;1.60;99.90
34434;DHT22;34290;48.562;13.384;2022-12-07T05:06:04;1.60;99.90
34434;DHT22;34290;48.562;13.384;2022-12-07T05:08:32;1.60;99.90
34434;DHT22;34290;48.562;13.384;2022-12-07T05:11:02;1.60;99.90
34434;DHT22;34290;48.562;13.384;2022-12-07T05:13:29;1.60;99.90
34434;DHT22;34290;48.562;13.384;2022-12-07T05:15:56;1.60;99.90
34434;DHT22;34290;48.562;13.384;2022-12-07T05:20:51;1.50;99.90
34434;DHT22;34290;48.562;13.384;2022-12-07T05:23:18;1.50;99.90
34434;DHT22;34290;48.562;13.384;2022-12-07T05:25:46;1.50;99.90
34434;DHT22;34290;48.562;13.384;2022-12-07T05:28:14;1.50;99.90
34434;DHT22;34290;48.562;13.384;2022-12-07T05:30:41;1.50;99.90
34434;DHT22;34290;48.562;13.384;2022-12-07T05:40:30;1.50;99.90
34434;DHT22;34290;48.562;13.384;2022-12-07T05:45:25;1.50;99.90
34434;DHT22;34290;48.562;13.384;2022-12-07T05:47:52;1.50;99.90
34434;DHT22;34290;48.562;13.384;2022-12-07T05:50:19;1.50;99.90
34434;DHT22;34290;48.562;13.384;2022-12-07T05:55:16;1.50;99.90
34434;DHT22;34290;48.562;13.384;2022-12-07T06:00:33;1.50;99.90
34434;DHT22;34290;48.562;13.384;2022-12-07T06:02:59;1.50;99.90
34434;DHT22;34290;48.562;13.384;2022-12-07T06:05:26;1.50;99.90
34434;DHT22;34290;48.562;13.384;2022-12-07T06:07:52;1.50;99.90
34434;DHT22;34290;48.562;13.384;2022-12-07T06:10:21;1.50;99.90
34434;DHT22;34290;48.562;13.384;2022-12-07T06:12:48;1.50;99.90
34434;DHT22;34290;48.562;13.384;2022-12-07T06:15:14;1.40;99.90
34434;DHT22;34290;48.562;13.384;2022-12-07T06:17:43;1.40;99.90
34434;DHT22;34290;48.562;13.384;2022-12-07T06:20:17;1.40;99.90
34434;DHT22;34290;48.562;13.384;2022-12-07T06:22:44;1.40;99.90
34434;DHT22;34290;48.562;13.384;2022-12-07T06:30:06;1.30;99.90
34434;DHT22;34290;48.562;13.384;2022-12-07T06:32:35;1.30;99.90
34434;DHT22;34290;48.562;13.384;2022-12-07T06:35:04;1.30;99.90
34434;DHT22;34290;48.562;13.384;2022-12-07T06:37:31;1.30;99.90
34434;DHT22;34290;48.562;13.384;2022-12-07T06:42:25;1.40;99.90
34434;DHT22;34290;48.562;13.384;2022-12-07T06:44:56;1.40;99.90
34434;DHT22;34290;48.562;13.384;2022-12-07T06:47:22;1.40;99.90
34434;DHT22;34290;48.562;13.384;2022-12-07T06:49:49;1.50;99.90
34434;DHT22;34290;48.562;13.384;2022-12-07T06:52:18;1.50;99.90
34434;DHT22;34290;48.562;13.384;2022-12-07T06:54:45;1.50;99.90
34434;DHT22;34290;48.562;13.384;2022-12-07T06:57:12;1.50;99.90
34434;DHT22;34290;48.562;13.384;2022-12-07T06:59:39;1.50;99.90
34434;DHT22;34290;48.562;13.384;2022-12-07T07:02:06;1.50;99.90
34434;DHT22;34290;48.562;13.384;2022-12-07T07:04:33;1.50;99.90
34434;DHT22;34290;48.562;13.384;2022-12-07T07:07:00;1.50;99.90
34434;DHT22;34290;48.562;13.384;2022-12-07T07:09:28;1.50;99.90
34434;DHT22;34290;48.562;13.384;2022-12-07T07:11:55;1.50;99.90
34434;DHT22;34290;48.562;13.384;2022-12-07T07:14:24;1.50;99.90
34434;DHT22;34290;48.562;13.384;2022-12-07T07:16:51;1.50;99.90
34434;DHT22;34290;48.562;13.384;2022-12-07T07:19:18;1.60;99.90
34434;DHT22;34290;48.562;13.384;2022-12-07T07:24:12;1.60;99.90
34434;DHT22;34290;48.562;13.384;2022-12-07T07:26:41;1.60;99.90
34434;DHT22;34290;48.562;13.384;2022-12-07T07:31:35;1.50;99.90
34434;DHT22;34290;48.562;13.384;2022-12-07T07:39:00;1.90;99.90
34434;DHT22;34290;48.562;13.384;2022-12-07T07:43:56;2.90;99.90
34434;DHT22;34290;48.562;13.384;2022-12-07T07:46:23;3.30;99.90
34434;DHT22;34290;48.562;13.384;2022-12-07T07:48:49;4.00;99.90
34434;DHT22;34290;48.562;13.384;2022-12-07T07:53:44;6.80;99.90
34434;DHT22;34290;48.562;13.384;2022-12-07T07:56:11;8.20;99.90
34434;DHT22;34290;48.562;13.384;2022-12-07T07:58:38;9.30;99.90
34434;DHT22;34290;48.562;13.384;2022-12-07T08:01:07;9.90;99.90
34434;DHT22;34290;48.562;13.384;2022-12-07T08:03:34;10.90;99.90
34434;DHT22;34290;48.562;13.384;2022-12-07T08:06:02;11.60;99.90
34434;DHT22;34290;48.562;13.384;2022-12-07T08:08:29;11.90;99.90
34434;DHT22;34290;48.562;13.384;2022-12-07T08:10:56;12.60;99.90
34434;DHT22;34290;48.562;13.384;2022-12-07T08:15:53;13.40;99.90
34434;DHT22;34290;48.562;13.384;2022-12-07T08:18:22;13.90;99.90
34434;DHT22;34290;48.562;13.384;2022-12-07T08:23:16;13.80;97.80
34434;DHT22;34290;48.562;13.384;2022-12-07T08:25:43;14.70;98.40
34434;DHT22;34290;48.562;13.384;2022-12-07T08:30:37;15.80;94.60
34434;DHT22;34290;48.562;13.384;2022-12-07T08:33:04;16.50;94.70
34434;DHT22;34290;48.562;13.384;2022-12-07T08:35:34;16.40;94.40
34434;DHT22;34290;48.562;13.384;2022-12-07T08:38:01;16.70;94.50
34434;DHT22;34290;48.562;13.384;2022-12-07T08:40:29;17.20;93.70
34434;DHT22;34290;48.562;13.384;2022-12-07T08:42:56;17.70;92.60
34434;DHT22;34290;48.562;13.384;2022-12-07T08:47:53;18.40;90.90
34434;DHT22;34290;48.562;13.384;2022-12-07T08:50:21;18.30;90.80
34434;DHT22;34290;48.562;13.384;2022-12-07T08:52:51;17.60;90.30
34434;DHT22;34290;48.562;13.384;2022-12-07T08:55:20;16.90;90.10
34434;DHT22;34290;48.562;13.384;2022-12-07T08:57:48;16.10;91.50
34434;DHT22;34290;48.562;13.384;2022-12-07T09:00:18;15.10;91.30
34434;DHT22;34290;48.562;13.384;2022-12-07T09:02:45;13.70;92.90
34434;DHT22;34290;48.562;13.384;2022-12-07T09:05:13;12.60;94.20
34434;DHT22;34290;48.562;13.384;2022-12-07T09:07:42;11.50;94.90
34434;DHT22;34290;48.562;13.384;2022-12-07T09:10:11;10.80;96.60
34434;DHT22;34290;48.562;13.384;2022-12-07T09:15:07;8.90;98.00
34434;DHT22;34290;48.562;13.384;2022-12-07T09:17:35;8.10;99.50
34434;DHT22;34290;48.562;13.384;2022-12-07T09:20:04;7.80;99.90
34434;DHT22;34290;48.562;13.384;2022-12-07T09:22:32;7.50;99.90
34434;DHT22;34290;48.562;13.384;2022-12-07T09:27:28;7.00;99.90
34434;DHT22;34290;48.562;13.384;2022-12-07T09:29:55;6.40;99.90
34434;DHT22;34290;48.562;13.384;2022-12-07T09:32:22;6.10;99.90
34434;DHT22;34290;48.562;13.384;2022-12-07T09:37:17;5.10;99.90
34434;DHT22;34290;48.562;13.384;2022-12-07T09:39:44;4.90;99.90
34434;DHT22;34290;48.562;13.384;2022-12-07T09:42:29;4.90;99.90
34434;DHT22;34290;48.562;13.384;2022-12-07T09:44:56;4.70;99.90
34434;DHT22;34290;48.562;13.384;2022-12-07T09:47:25;4.80;99.90
34434;DHT22;34290;48.562;13.384;2022-12-07T09:49:53;4.70;99.90
34434;DHT22;34290;48.562;13.384;2022-12-07T09:52:26;4.60;99.90
34434;DHT22;34290;48.562;13.384;2022-12-07T09:54:54;4.50;99.90
34434;DHT22;34290;48.562;13.384;2022-12-07T09:57:27;5.20;99.90
34434;DHT22;34290;48.562;13.384;2022-12-07T10:00:00;5.40;99.90
34434;DHT22;34290;48.562;13.384;2022-12-07T10:02:35;5.20;99.90
34434;DHT22;34290;48.562;13.384;2022-12-07T10:05:04;5.00;99.90
34434;DHT22;34290;48.562;13.384;2022-12-07T10:07:32;4.90;99.90
34434;DHT22;34290;48.562;13.384;2022-12-07T10:12:26;5.00;99.90
34434;DHT22;34290;48.562;13.384;2022-12-07T10:14:55;5.00;99.90
34434;DHT22;34290;48.562;13.384;2022-12-07T10:17:32;5.10;99.90
34434;DHT22;34290;48.562;13.384;2022-12-07T10:20:20;5.20;99.90
34434;DHT22;34290;48.562;13.384;2022-12-07T10:23:08;5.30;99.90
34434;DHT22;34290;48.562;13.384;2022-12-07T10:25:40;5.30;99.90
34434;DHT22;34290;48.562;13.384;2022-12-07T10:28:13;5.30;99.90
34434;DHT22;34290;48.562;13.384;2022-12-07T10:30:49;5.40;99.90
34434;DHT22;34290;48.562;13.384;2022-12-07T10:33:35;5.40;99.90
34434;DHT22;34290;48.562;13.384;2022-12-07T10:36:18;5.40;99.90
34434;DHT22;34290;48.562;13.384;2022-12-07T10:38:48;5.60;99.90
34434;DHT22;34290;48.562;13.384;2022-12-07T10:43:51;5.70;99.90
34434;DHT22;34290;48.562;13.384;2022-12-07T10:49:55;6.10;99.90
34434;DHT22;34290;48.562;13.384;2022-12-07T10:52:55;6.20;99.90
34434;DHT22;34290;48.562;13.384;2022-12-07T10:55:36;6.10;99.90
34434;DHT22;34290;48.562;13.384;2022-12-07T10:58:21;6.10;99.90
34434;DHT22;34290;48.562;13.384;2022-12-07T11:00:57;5.90;99.90
34434;DHT22;34290;48.562;13.384;2022-12-07T11:03:47;5.80;99.90
34434;DHT22;34290;48.562;13.384;2022-12-07T11:06:29;5.80;99.90
34434;DHT22;34290;48.562;13.384;2022-12-07T11:09:24;5.70;99.90
34434;DHT22;34290;48.562;13.384;2022-12-07T11:11:59;5.70;99.90
34434;DHT22;34290;48.562;13.384;2022-12-07T11:14:40;5.70;99.90
34434;DHT22;34290;48.562;13.384;2022-12-07T11:17:10;5.70;99.90
34434;DHT22;34290;48.562;13.384;2022-12-07T11:19:49;5.80;99.90
34434;DHT22;34290;48.562;13.384;2022-12-07T11:22:26;5.60;99.90
34434;DHT22;34290;48.562;13.384;2022-12-07T11:25:03;5.50;99.90
34434;DHT22;34290;48.562;13.384;2022-12-07T11:27:44;5.40;99.90
34434;DHT22;34290;48.562;13.384;2022-12-07T11:30:18;5.30;99.90
34434;DHT22;34290;48.562;13.384;2022-12-07T11:33:05;5.30;99.90
34434;DHT22;34290;48.562;13.384;2022-12-07T11:35:45;5.20;99.90
34434;DHT22;34290;48.562;13.384;2022-12-07T11:38:17;5.20;99.90
34434;DHT22;34290;48.562;13.384;2022-12-07T11:40:47;5.20;99.90
34434;DHT22;34290;48.562;13.384;2022-12-07T11:43:21;5.20;99.90
34434;DHT22;34290;48.562;13.384;2022-12-07T11:45:56;5.20;99.90
34434;DHT22;34290;48.562;13.384;2022-12-07T11:48:31;5.00;99.90
34434;DHT22;34290;48.562;13.384;2022-12-07T11:51:03;5.00;99.90
34434;DHT22;34290;48.562;13.384;2022-12-07T11:53:37;5.00;99.90
34434;DHT22;34290;48.562;13.384;2022-12-07T11:56:09;5.00;99.90
34434;DHT22;34290;48.562;13.384;2022-12-07T11:58:48;5.20;99.90
34434;DHT22;34290;48.562;13.384;2022-12-07T12:01:26;5.20;99.90
34434;DHT22;34290;48.562;13.384;2022-12-07T12:04:00;5.30;99.90
34434;DHT22;34290;48.562;13.384;2022-12-07T12:06:28;5.30;99.90
34434;DHT22;34290;48.562;13.384;2022-12-07T12:09:03;5.40;99.90
34434;DHT22;34290;48.562;13.384;2022-12-07T12:11:45;5.30;99.90
34434;DHT22;34290;48.562;13.384;2022-12-07T12:14:41;5.20;99.90
34434;DHT22;34290;48.562;13.384;2022-12-07T12:20:14;5.30;99.90
34434;DHT22;34290;48.562;13.384;2022-12-07T12:22:46;5.10;99.90
34434;DHT22;34290;48.562;13.384;2022-12-07T12:25:21;5.10;99.90
34434;DHT22;34290;48.562;13.384;2022-12-07T12:27:50;5.10;99.90
34434;DHT22;34290;48.562;13.384;2022-12-07T12:30:34;5.00;99.90
34434;DHT22;34290;48.562;13.384;2022-12-07T12:33:04;4.90;99.90
34434;DHT22;34290;48.562;13.384;2022-12-07T12:35:34;4.80;99.90
34434;DHT22;34290;48.562;13.384;2022-12-07T12:38:31;4.70;99.90
34434;DHT22;34290;48.562;13.384;2022-12-07T12:41:02;4.70;99.90
34434;DHT22;34290;48.562;13.384;2022-12-07T12:43:49;4.70;99.90
34434;DHT22;34290;48.562;13.384;2022-12-07T12:46:47;4.60;99.90
34434;DHT22;34290;48.562;13.384;2022-12-07T12:49:39;4.50;99.90
34434;DHT22;34290;48.562;13.384;2022-12-07T12:58:38;4.70;99.90
34434;DHT22;34290;48.562;13.384;2022-12-07T13:04:38;4.50;99.90
34434;DHT22;34290;48.562;13.384;2022-12-07T13:07:11;4.50;99.90
34434;DHT22;34290;48.562;13.384;2022-12-07T13:09:43;4.50;99.90
34434;DHT22;34290;48.562;13.384;2022-12-07T13:12:14;4.50;99.90
34434;DHT22;34290;48.562;13.384;2022-12-07T13:14:52;4.40;99.90
34434;DHT22;34290;48.562;13.384;2022-12-07T13:17:57;4.40;99.90
34434;DHT22;34290;48.562;13.384;2022-12-07T13:20:56;4.30;99.90
34434;DHT22;34290;48.562;13.384;2022-12-07T13:23:27;4.30;99.90
34434;DHT22;34290;48.562;13.384;2022-12-07T13:28:46;4.00;99.90
34434;DHT22;34290;48.562;13.384;2022-12-07T13:31:31;4.00;99.90
34434;DHT22;34290;48.562;13.384;2022-12-07T13:33:59;4.10;99.90
34434;DHT22;34290;48.562;13.384;2022-12-07T13:36:28;4.10;99.90
34434;DHT22;34290;48.562;13.384;2022-12-07T13:38:58;4.10;99.90
34434;DHT22;34290;48.562;13.384;2022-12-07T13:41:28;4.10;99.90
34434;DHT22;34290;48.562;13.384;2022-12-07T13:44:05;4.00;99.90
34434;DHT22;34290;48.562;13.384;2022-12-07T13:46:49;4.00;99.90
34434;DHT22;34290;48.562;13.384;2022-12-07T13:49:21;3.90;99.90
34434;DHT22;34290;48.562;13.384;2022-12-07T13:51:49;3.90;99.90
34434;DHT22;34290;48.562;13.384;2022-12-07T13:54:16;3.90;99.90
34434;DHT22;34290;48.562;13.384;2022-12-07T13:56:47;3.80;99.90
34434;DHT22;34290;48.562;13.384;2022-12-07T13:59:17;3.90;99.90
34434;DHT22;34290;48.562;13.384;2022-12-07T14:01:49;3.80;99.90
34434;DHT22;34290;48.562;13.384;2022-12-07T14:04:31;3.80;99.90
34434;DHT22;34290;48.562;13.384;2022-12-07T14:06:59;3.70;99.90
34434;DHT22;34290;48.562;13.384;2022-12-07T14:09:28;3.70;99.90
34434;DHT22;34290;48.562;13.384;2022-12-07T14:12:00;3.70;99.90
34434;DHT22;34290;48.562;13.384;2022-12-07T14:14:32;3.70;99.90
34434;DHT22;34290;48.562;13.384;2022-12-07T14:17:08;3.70;99.90
34434;DHT22;34290;48.562;13.384;2022-12-07T14:19:42;3.70;99.90
34434;DHT22;34290;48.562;13.384;2022-12-07T14:22:25;3.60;99.90
34434;DHT22;34290;48.562;13.384;2022-12-07T14:25:01;3.60;99.90
34434;DHT22;34290;48.562;13.384;2022-12-07T14:27:31;3.50;99.90
34434;DHT22;34290;48.562;13.384;2022-12-07T14:30:00;3.50;99.90
34434;DHT22;34290;48.562;13.384;2022-12-07T14:32:30;3.50;99.90
34434;DHT22;34290;48.562;13.384;2022-12-07T14:34:59;3.50;99.90
34434;DHT22;34290;48.562;13.384;2022-12-07T14:37:27;3.50;99.90
34434;DHT22;34290;48.562;13.384;2022-12-07T14:39:55;3.50;99.90
34434;DHT22;34290;48.562;13.384;2022-12-07T14:42:24;3.40;99.90
34434;DHT22;34290;48.562;13.384;2022-12-07T14:44:51;3.40;99.90
34434;DHT22;34290;48.562;13.384;2022-12-07T14:49:47;3.30;99.90
34434;DHT22;34290;48.562;13.384;2022-12-07T14:52:17;3.20;99.90
34434;DHT22;34290;48.562;13.384;2022-12-07T14:54:45;3.20;99.90
34434;DHT22;34290;48.562;13.384;2022-12-07T14:57:12;3.20;99.90
34434;DHT22;34290;48.562;13.384;2022-12-07T14:59:40;3.10;99.90
34434;DHT22;34290;48.562;13.384;2022-12-07T15:02:09;3.10;99.90
34434;DHT22;34290;48.562;13.384;2022-12-07T15:04:37;3.10;99.90
34434;DHT22;34290;48.562;13.384;2022-12-07T15:07:08;3.00;99.90
34434;DHT22;34290;48.562;13.384;2022-12-07T15:09:36;3.00;99.90
34434;DHT22;34290;48.562;13.384;2022-12-07T15:14:30;2.90;99.90
34434;DHT22;34290;48.562;13.384;2022-12-07T15:16:58;2.90;99.90
34434;DHT22;34290;48.562;13.384;2022-12-07T15:19:25;2.90;99.90
34434;DHT22;34290;48.562;13.384;2022-12-07T15:21:53;2.90;99.90
34434;DHT22;34290;48.562;13.384;2022-12-07T15:24:25;2.90;99.90
34434;DHT22;34290;48.562;13.384;2022-12-07T15:26:53;2.80;99.90
34434;DHT22;34290;48.562;13.384;2022-12-07T15:29:20;2.80;99.90
34434;DHT22;34290;48.562;13.384;2022-12-07T15:31:48;2.70;99.90
34434;DHT22;34290;48.562;13.384;2022-12-07T15:36:43;2.70;99.90
34434;DHT22;34290;48.562;13.384;2022-12-07T15:39:10;2.70;99.90
34434;DHT22;34290;48.562;13.384;2022-12-07T15:41:38;2.70;99.90
34434;DHT22;34290;48.562;13.384;2022-12-07T15:46:50;2.70;99.90
34434;DHT22;34290;48.562;13.384;2022-12-07T15:49:20;2.70;99.90
34434;DHT22;34290;48.562;13.384;2022-12-07T15:51:47;2.70;99.90
34434;DHT22;34290;48.562;13.384;2022-12-07T15:54:18;2.60;99.90
34434;DHT22;34290;48.562;13.384;2022-12-07T15:56:47;2.60;99.90
34434;DHT22;34290;48.562;13.384;2022-12-07T15:59:14;2.60;99.90
34434;DHT22;34290;48.562;13.384;2022-12-07T16:01:41;2.60;99.90
34434;DHT22;34290;48.562;13.384;2022-12-07T16:04:08;2.60;99.90
34434;DHT22;34290;48.562;13.384;2022-12-07T16:06:36;2.60;99.90
34434;DHT22;34290;48.562;13.384;2022-12-07T16:09:03;2.60;99.90
34434;DHT22;34290;48.562;13.384;2022-12-07T16:13:59;2.50;99.90
34434;DHT22;34290;48.562;13.384;2022-12-07T16:16:26;2.50;99.90
34434;DHT22;34290;48.562;13.384;2022-12-07T16:18:53;2.40;99.90
34434;DHT22;34290;48.562;13.384;2022-12-07T16:21:21;2.40;99.90
34434;DHT22;34290;48.562;13.384;2022-12-07T16:23:48;2.40;99.90
34434;DHT22;34290;48.562;13.384;2022-12-07T16:26:19;2.40;99.90
34434;DHT22;34290;48.562;13.384;2022-12-07T16:28:48;2.40;99.90
34434;DHT22;34290;48.562;13.384;2022-12-07T16:31:22;2.40;99.90
34434;DHT22;34290;48.562;13.384;2022-12-07T16:33:53;2.30;99.90
34434;DHT22;34290;48.562;13.384;2022-12-07T16:36:20;2.30;99.90
34434;DHT22;34290;48.562;13.384;2022-12-07T16:38:50;2.30;99.90
34434;DHT22;34290;48.562;13.384;2022-12-07T16:41:17;2.30;99.90
34434;DHT22;34290;48.562;13.384;2022-12-07T16:43:44;2.30;99.90
34434;DHT22;34290;48.562;13.384;2022-12-07T16:46:11;2.20;99.90
34434;DHT22;34290;48.562;13.384;2022-12-07T16:48:40;2.10;99.90
34434;DHT22;34290;48.562;13.384;2022-12-07T16:51:09;2.10;99.90
34434;DHT22;34290;48.562;13.384;2022-12-07T16:53:37;2.10;99.90
34434;DHT22;34290;48.562;13.384;2022-12-07T16:56:09;2.10;99.90
34434;DHT22;34290;48.562;13.384;2022-12-07T16:58:38;2.10;99.90
34434;DHT22;34290;48.562;13.384;2022-12-07T17:01:10;2.10;99.90
34434;DHT22;34290;48.562;13.384;2022-12-07T17:03:37;2.10;99.90
34434;DHT22;34290;48.562;13.384;2022-12-07T17:06:13;2.20;99.90
34434;DHT22;34290;48.562;13.384;2022-12-07T17:08:41;2.20;99.90
34434;DHT22;34290;48.562;13.384;2022-12-07T17:11:12;2.20;99.90
34434;DHT22;34290;48.562;13.384;2022-12-07T17:13:39;2.20;99.90
34434;DHT22;34290;48.562;13.384;2022-12-07T17:16:23;2.30;99.90
34434;DHT22;34290;48.562;13.384;2022-12-07T17:18:50;2.30;99.90
34434;DHT22;34290;48.562;13.384;2022-12-07T17:21:20;2.30;99.90
34434;DHT22;34290;48.562;13.384;2022-12-07T17:23:48;2.30;99.90
34434;DHT22;34290;48.562;13.384;2022-12-07T17:26:17;2.30;99.90
34434;DHT22;34290;48.562;13.384;2022-12-07T17:28:45;2.30;99.90
34434;DHT22;34290;48.562;13.384;2022-12-07T17:31:14;2.20;99.90
34434;DHT22;34290;48.562;13.384;2022-12-07T17:33:41;2.30;99.90
34434;DHT22;34290;48.562;13.384;2022-12-07T17:36:12;2.30;99.90
34434;DHT22;34290;48.562;13.384;2022-12-07T17:38:41;2.20;99.90
34434;DHT22;34290;48.562;13.384;2022-12-07T17:41:09;2.20;99.90
34434;DHT22;34290;48.562;13.384;2022-12-07T17:43:37;2.20;99.90
34434;DHT22;34290;48.562;13.384;2022-12-07T17:46:08;2.20;99.90
34434;DHT22;34290;48.562;13.384;2022-12-07T17:48:35;2.20;99.90
34434;DHT22;34290;48.562;13.384;2022-12-07T17:51:02;2.20;99.90
34434;DHT22;34290;48.562;13.384;2022-12-07T17:53:49;2.20;99.90
34434;DHT22;34290;48.562;13.384;2022-12-07T17:56:17;2.20;99.90
34434;DHT22;34290;48.562;13.384;2022-12-07T17:58:44;2.20;99.90
34434;DHT22;34290;48.562;13.384;2022-12-07T18:01:11;2.20;99.90
34434;DHT22;34290;48.562;13.384;2022-12-07T18:03:38;2.20;99.90